Mattawamkeag, Maine
Current Conditions -  °F | °C
As of 6:22 AM on Thursday 23 Oct 2014 (Local Time) from KMLT Reporting Station
Overcast Overcast  
Wind Chill: 39°   Ceiling: 1000
Heat Index: 45°   Visibility: 9mi
Dew Point: 42°   Wind: 14mph
Humidity: 90%   Direction: 50°NE
Pressure: 30.09"   Gusts: 20mph
Location:  45.51°N, 68.35°W
Report Text: KMLT 231022Z AUTO 05012G17KT 9SM OVC010 07/06 A3009 RMK AO2 RAE0956 CIG 006V012 P0000 T00720056
Loading
Personal Weather Stations






























Interactive Weather Map
Tropical Storm Tracking
New forecast layout! Learn more

10-Day Weather Forecast

Advertisements
Track Severe Weather on mobile